createdAt,value
2017-12-20T00:00:30.054Z,35.30
2017-12-20T00:02:57.578Z,38.23
2017-12-20T00:05:25.100Z,36.17
2017-12-20T00:07:52.619Z,43.30
2017-12-20T00:10:20.142Z,42.63
2017-12-20T00:12:47.693Z,39.77
2017-12-20T00:15:15.222Z,40.97
2017-12-20T00:17:42.757Z,45.10
2017-12-20T00:20:10.291Z,42.33
2017-12-20T00:22:37.817Z,37.80
2017-12-20T00:25:05.351Z,39.40
2017-12-20T00:27:32.882Z,34.87
2017-12-20T00:30:00.490Z,34.37
2017-12-20T00:32:28.025Z,33.70
2017-12-20T00:34:55.562Z,35.87
2017-12-20T00:37:23.092Z,36.90
2017-12-20T00:39:50.625Z,39.00
2017-12-20T00:42:18.153Z,39.83
2017-12-20T00:44:45.687Z,41.33
2017-12-20T00:47:13.214Z,44.37
2017-12-20T00:49:40.760Z,38.63
2017-12-20T00:52:09.071Z,40.30
2017-12-20T00:54:36.595Z,37.67
2017-12-20T00:57:04.122Z,39.97
2017-12-20T00:59:31.656Z,34.47
2017-12-20T01:01:59.228Z,41.63
2017-12-20T01:04:26.767Z,38.23
2017-12-20T01:06:54.296Z,39.47
2017-12-20T01:09:21.826Z,45.17
2017-12-20T01:11:49.377Z,41.80
2017-12-20T01:14:16.913Z,45.30
2017-12-20T01:16:44.459Z,40.00
2017-12-20T01:19:11.983Z,38.17
2017-12-20T01:21:39.512Z,42.37
2017-12-20T01:24:07.028Z,36.13
2017-12-20T01:26:34.546Z,37.90
2017-12-20T01:29:02.992Z,33.23
2017-12-20T01:31:30.526Z,38.27
2017-12-20T01:33:58.058Z,34.73
2017-12-20T01:36:25.580Z,35.93
2017-12-20T01:38:53.104Z,35.43
2017-12-20T01:41:20.630Z,34.40
2017-12-20T01:43:48.972Z,32.43
2017-12-20T01:46:16.500Z,32.20
2017-12-20T01:48:44.032Z,34.53
2017-12-20T01:51:11.555Z,33.83
2017-12-20T01:53:39.077Z,35.80
2017-12-20T01:56:06.600Z,36.23
2017-12-20T01:58:34.120Z,29.53
2017-12-20T02:01:01.653Z,30.77
2017-12-20T02:03:29.174Z,29.70
2017-12-20T02:05:56.701Z,28.23
2017-12-20T02:08:24.230Z,26.47
2017-12-20T02:10:51.752Z,27.70
2017-12-20T02:13:19.291Z,26.27
2017-12-20T02:15:46.812Z,25.07
2017-12-20T02:18:14.337Z,25.00
2017-12-20T02:20:41.863Z,25.33
2017-12-20T02:23:09.387Z,24.93
2017-12-20T02:25:36.935Z,23.97
2017-12-20T02:28:04.465Z,26.43
2017-12-20T02:30:31.996Z,25.50
2017-12-20T02:32:59.524Z,20.80
2017-12-20T02:35:27.054Z,23.13
2017-12-20T02:37:54.610Z,25.60
2017-12-20T02:40:22.139Z,27.53
2017-12-20T02:42:49.668Z,24.77
2017-12-20T02:45:17.193Z,21.73
2017-12-20T02:47:44.727Z,23.30
2017-12-20T02:50:12.272Z,22.40
2017-12-20T02:52:39.799Z,24.80
2017-12-20T02:55:07.327Z,23.83
2017-12-20T02:57:34.841Z,19.07
2017-12-20T03:00:02.374Z,20.03
2017-12-20T03:02:29.893Z,19.50
2017-12-20T03:04:57.410Z,21.87
2017-12-20T03:07:24.929Z,22.20
2017-12-20T03:09:52.445Z,21.03
2017-12-20T03:12:19.971Z,18.67
2017-12-20T03:14:47.501Z,19.33
2017-12-20T03:17:15.026Z,17.20
2017-12-20T03:19:42.547Z,21.57
2017-12-20T03:22:10.080Z,22.53
2017-12-20T03:24:37.634Z,19.07
2017-12-20T03:27:05.165Z,22.47
2017-12-20T03:29:32.686Z,21.80
2017-12-20T03:32:00.213Z,21.00
2017-12-20T03:34:27.732Z,24.40
2017-12-20T03:36:55.272Z,24.20
2017-12-20T03:39:22.794Z,22.37
2017-12-20T03:41:50.316Z,23.10
2017-12-20T03:44:17.849Z,26.83
2017-12-20T03:46:45.371Z,23.80
2017-12-20T03:49:12.895Z,25.93
2017-12-20T03:51:40.452Z,25.77
2017-12-20T03:54:07.983Z,25.67
2017-12-20T03:56:35.571Z,23.03
2017-12-20T03:59:03.097Z,24.40
2017-12-20T04:01:30.621Z,27.50
2017-12-20T04:03:58.157Z,25.87
2017-12-20T04:06:25.709Z,24.63
2017-12-20T04:08:53.241Z,29.07
2017-12-20T04:11:20.758Z,28.40
2017-12-20T04:13:48.289Z,27.60
2017-12-20T04:16:15.817Z,24.10
2017-12-20T04:18:43.364Z,24.53
2017-12-20T04:21:10.894Z,26.90
2017-12-20T04:23:38.427Z,25.13
2017-12-20T04:26:05.942Z,25.97
2017-12-20T04:28:33.472Z,25.27
2017-12-20T04:31:00.989Z,24.73
2017-12-20T04:33:28.517Z,27.17
2017-12-20T04:35:56.046Z,26.17
2017-12-20T04:38:23.584Z,26.20
2017-12-20T04:40:51.111Z,25.07
2017-12-20T04:43:18.631Z,25.00
2017-12-20T04:45:46.159Z,28.40
2017-12-20T04:48:13.677Z,27.67
2017-12-20T04:50:41.201Z,31.80
2017-12-20T04:53:08.738Z,32.70
2017-12-20T04:55:36.280Z,30.77
2017-12-20T04:58:03.807Z,26.50
2017-12-20T05:00:31.367Z,25.60
2017-12-20T05:02:58.905Z,27.87
2017-12-20T05:05:26.438Z,28.87
2017-12-20T05:07:53.979Z,25.43
2017-12-20T05:10:21.506Z,24.97
2017-12-20T05:12:49.046Z,28.63
2017-12-20T05:15:16.583Z,30.67
2017-12-20T05:17:44.107Z,27.23
2017-12-20T05:20:11.627Z,28.30
2017-12-20T05:22:39.150Z,28.20
2017-12-20T05:25:06.678Z,30.23
2017-12-20T05:27:34.203Z,28.40
2017-12-20T05:30:01.728Z,27.07
2017-12-20T05:32:29.269Z,25.43
2017-12-20T05:34:56.794Z,27.90
2017-12-20T05:37:24.321Z,27.03
2017-12-20T05:39:51.838Z,29.43
2017-12-20T05:42:19.368Z,29.73
2017-12-20T05:44:46.890Z,31.10
2017-12-20T05:47:14.442Z,27.80
2017-12-20T05:49:41.973Z,29.83
2017-12-20T05:52:09.490Z,29.87
2017-12-20T05:54:37.016Z,28.47
2017-12-20T05:57:04.550Z,28.37
2017-12-20T05:59:32.075Z,26.90
2017-12-20T06:01:59.581Z,30.23
2017-12-20T06:04:27.103Z,24.77
2017-12-20T06:06:54.636Z,31.00
2017-12-20T06:09:22.177Z,28.90
2017-12-20T06:11:49.705Z,28.20
2017-12-20T06:14:17.250Z,30.60
2017-12-20T06:16:44.779Z,27.37
2017-12-20T06:19:12.297Z,26.87
2017-12-20T06:21:39.841Z,27.80
2017-12-20T06:24:07.379Z,31.77
2017-12-20T06:26:34.922Z,28.47
2017-12-20T06:29:02.454Z,29.97
2017-12-20T06:31:29.980Z,31.20
2017-12-20T06:33:57.497Z,26.83
2017-12-20T06:36:25.028Z,30.07
2017-12-20T06:38:52.553Z,30.33
2017-12-20T06:41:20.069Z,28.23
2017-12-20T06:43:47.584Z,29.47
2017-12-20T06:46:15.137Z,30.30
2017-12-20T06:48:42.659Z,25.93
2017-12-20T06:51:10.174Z,30.87
2017-12-20T06:53:37.687Z,27.30
2017-12-20T06:56:05.219Z,24.63
2017-12-20T06:58:32.745Z,23.20
2017-12-20T07:01:00.270Z,29.83
2017-12-20T07:03:27.791Z,25.63
2017-12-20T07:05:55.312Z,25.17
2017-12-20T07:08:22.841Z,22.90
2017-12-20T07:10:50.371Z,24.83
2017-12-20T07:13:17.892Z,23.53
2017-12-20T07:15:45.413Z,24.07
2017-12-20T07:18:12.944Z,27.37
2017-12-20T07:20:40.463Z,25.70
2017-12-20T07:23:07.989Z,23.37
2017-12-20T07:25:35.516Z,25.23
2017-12-20T07:28:03.038Z,24.40
2017-12-20T07:30:30.564Z,23.80
2017-12-20T07:32:58.090Z,24.10
2017-12-20T07:35:25.619Z,22.20
2017-12-20T07:37:53.142Z,22.93
2017-12-20T07:40:20.669Z,26.07
2017-12-20T07:42:48.185Z,25.57
2017-12-20T07:45:15.711Z,26.47
2017-12-20T07:47:43.229Z,22.53
2017-12-20T07:50:10.863Z,23.07
2017-12-20T07:52:38.384Z,27.20
2017-12-20T07:55:05.898Z,25.97
2017-12-20T07:57:33.445Z,21.53
2017-12-20T08:00:00.977Z,22.90
2017-12-20T08:02:28.493Z,23.83
2017-12-20T08:04:56.017Z,25.73
2017-12-20T08:07:23.552Z,25.70
2017-12-20T08:09:51.071Z,23.60
2017-12-20T08:12:18.599Z,23.20
2017-12-20T08:14:46.133Z,24.87
2017-12-20T08:17:13.659Z,23.80
2017-12-20T08:19:41.180Z,23.73
2017-12-20T08:22:08.706Z,25.60
2017-12-20T08:24:36.232Z,23.47
2017-12-20T08:27:03.763Z,23.00
2017-12-20T08:29:31.286Z,22.50
2017-12-20T08:31:58.816Z,24.17
2017-12-20T08:34:26.339Z,20.13
2017-12-20T08:36:53.860Z,23.00
2017-12-20T08:39:21.395Z,20.13
2017-12-20T08:41:48.922Z,20.97
2017-12-20T08:44:16.462Z,23.57
2017-12-20T08:46:44.005Z,23.43
2017-12-20T08:49:12.248Z,21.77
2017-12-20T08:51:39.843Z,19.70
2017-12-20T08:54:07.370Z,22.27
2017-12-20T08:56:34.897Z,22.57
2017-12-20T08:59:02.419Z,22.53
2017-12-20T09:01:29.946Z,23.27
2017-12-20T09:03:57.470Z,23.23
2017-12-20T09:06:24.995Z,24.83
2017-12-20T09:08:52.522Z,23.23
2017-12-20T09:11:20.053Z,26.73
2017-12-20T09:13:47.570Z,23.60
2017-12-20T09:16:15.136Z,24.33
2017-12-20T09:18:42.661Z,25.93
2017-12-20T09:21:10.187Z,27.17
2017-12-20T09:23:37.706Z,22.63
2017-12-20T09:26:05.281Z,26.80
2017-12-20T09:28:32.820Z,24.33
2017-12-20T09:31:00.357Z,25.53
2017-12-20T09:33:27.882Z,27.17
2017-12-20T09:35:55.408Z,25.00
2017-12-20T09:38:23.039Z,26.87
2017-12-20T09:40:50.563Z,29.07
2017-12-20T09:43:18.097Z,32.47
2017-12-20T09:45:45.622Z,28.90
2017-12-20T09:48:13.143Z,26.43
2017-12-20T09:50:40.690Z,27.53
2017-12-20T09:53:08.216Z,30.37
2017-12-20T09:55:35.752Z,29.20
2017-12-20T09:58:03.271Z,30.23
2017-12-20T10:00:30.791Z,30.67
2017-12-20T10:02:58.325Z,31.73
2017-12-20T10:05:25.845Z,30.97
2017-12-20T10:07:53.435Z,29.87
2017-12-20T10:10:20.984Z,28.50
2017-12-20T10:12:48.530Z,32.03
2017-12-20T10:15:16.048Z,30.40
2017-12-20T10:17:43.574Z,30.50
2017-12-20T10:20:11.098Z,31.70
2017-12-20T10:22:38.628Z,29.43
2017-12-20T10:25:06.159Z,31.83
2017-12-20T10:27:33.679Z,34.23
2017-12-20T10:30:01.225Z,32.20
2017-12-20T10:32:28.744Z,34.10
2017-12-20T10:34:56.280Z,33.37
2017-12-20T10:37:23.803Z,30.00
2017-12-20T10:39:51.323Z,33.07
2017-12-20T10:42:18.842Z,30.67
2017-12-20T10:44:46.378Z,29.60
2017-12-20T10:47:13.907Z,32.03
2017-12-20T10:49:41.425Z,38.57
2017-12-20T10:52:08.988Z,30.50
2017-12-20T10:54:36.514Z,31.10
2017-12-20T10:57:04.056Z,31.97
2017-12-20T10:59:31.583Z,30.53
2017-12-20T11:01:59.098Z,32.93
2017-12-20T11:04:26.613Z,30.40
2017-12-20T11:06:54.150Z,31.60
2017-12-20T11:09:21.674Z,31.87
2017-12-20T11:11:49.208Z,29.77
2017-12-20T11:14:16.734Z,34.33
2017-12-20T11:16:44.252Z,26.97
2017-12-20T11:19:11.771Z,26.30
2017-12-20T11:21:39.315Z,30.77
2017-12-20T11:24:06.827Z,28.27
2017-12-20T11:26:34.393Z,30.83
2017-12-20T11:29:01.938Z,24.33
2017-12-20T11:31:29.467Z,26.23
2017-12-20T11:33:56.998Z,27.17
2017-12-20T11:36:24.517Z,27.10
2017-12-20T11:38:52.029Z,25.67
2017-12-20T11:41:19.536Z,28.37
2017-12-20T11:43:47.050Z,30.30
2017-12-20T11:46:14.574Z,29.87
2017-12-20T11:48:42.093Z,29.10
2017-12-20T11:51:09.626Z,25.77
2017-12-20T11:53:37.167Z,28.50
2017-12-20T11:56:04.687Z,30.07
2017-12-20T11:58:32.224Z,30.90
2017-12-20T12:00:59.785Z,27.57
2017-12-20T12:03:27.441Z,29.73
2017-12-20T12:05:54.967Z,27.73
2017-12-20T12:08:22.494Z,28.57
2017-12-20T12:10:50.012Z,32.83
2017-12-20T12:13:17.525Z,30.73
2017-12-20T12:15:45.045Z,31.23
2017-12-20T12:18:12.573Z,31.37
2017-12-20T12:20:40.099Z,30.00
2017-12-20T12:23:07.618Z,30.30
2017-12-20T12:25:35.148Z,31.23
2017-12-20T12:28:03.063Z,31.63
2017-12-20T12:30:30.581Z,33.77
2017-12-20T12:32:58.108Z,27.97
2017-12-20T12:35:25.646Z,34.10
2017-12-20T12:37:53.204Z,28.87
2017-12-20T12:40:20.741Z,33.10
2017-12-20T12:42:48.274Z,28.23
2017-12-20T12:45:15.792Z,33.37
2017-12-20T12:47:43.316Z,30.00
2017-12-20T12:50:10.849Z,31.17
2017-12-20T12:52:38.369Z,32.43
2017-12-20T12:55:05.924Z,30.23
2017-12-20T12:57:33.440Z,31.40
2017-12-20T13:00:00.954Z,30.30
2017-12-20T13:02:28.473Z,27.47
2017-12-20T13:04:55.998Z,27.57
2017-12-20T13:07:23.562Z,27.37
2017-12-20T13:09:51.077Z,30.27
2017-12-20T13:12:18.608Z,30.77
2017-12-20T13:14:47.225Z,27.57
2017-12-20T13:17:14.752Z,26.63
2017-12-20T13:19:42.279Z,26.07
2017-12-20T13:22:09.799Z,28.00
2017-12-20T13:24:37.330Z,24.30
2017-12-20T13:27:05.139Z,25.63
2017-12-20T13:29:32.694Z,24.97
2017-12-20T13:32:00.224Z,22.63
2017-12-20T13:34:27.748Z,25.73
2017-12-20T13:36:55.278Z,25.20
2017-12-20T13:39:22.798Z,22.57
2017-12-20T13:41:50.305Z,22.00
2017-12-20T13:44:17.829Z,21.97
2017-12-20T13:46:45.370Z,22.87
2017-12-20T13:49:12.892Z,24.73
2017-12-20T13:51:40.406Z,23.27
2017-12-20T13:54:07.920Z,22.90
2017-12-20T13:56:35.432Z,24.93
2017-12-20T13:59:03.138Z,26.63
2017-12-20T14:01:30.659Z,28.13
2017-12-20T14:03:58.188Z,27.73
2017-12-20T14:06:25.713Z,25.57
2017-12-20T14:08:53.260Z,31.60
2017-12-20T14:11:20.797Z,25.57
2017-12-20T14:13:48.325Z,25.43
2017-12-20T14:16:15.910Z,29.73
2017-12-20T14:18:43.413Z,30.93
2017-12-20T14:21:10.935Z,29.57
2017-12-20T14:23:38.480Z,32.37
2017-12-20T14:26:06.000Z,34.63
2017-12-20T14:28:33.511Z,32.73
2017-12-20T14:31:01.047Z,31.63
2017-12-20T14:33:28.570Z,29.77
2017-12-20T14:35:56.089Z,31.57
2017-12-20T14:38:23.614Z,28.37
2017-12-20T14:40:51.146Z,31.10
2017-12-20T14:43:18.668Z,26.53
2017-12-20T14:45:46.189Z,27.63
2017-12-20T14:48:13.718Z,31.63
2017-12-20T14:50:41.242Z,28.80
2017-12-20T14:53:08.766Z,26.50
2017-12-20T14:55:36.298Z,33.10
2017-12-20T14:58:03.831Z,30.67
2017-12-20T15:00:31.374Z,33.75
2017-12-20T15:02:58.904Z,33.97
2017-12-20T15:05:26.441Z,32.60
2017-12-20T15:07:53.954Z,34.67
2017-12-20T15:10:21.477Z,35.50
2017-12-20T15:12:49.016Z,34.53
2017-12-20T15:15:16.539Z,37.53
2017-12-20T15:17:44.065Z,38.50
2017-12-20T15:20:11.590Z,39.43
2017-12-20T15:22:39.114Z,38.43
2017-12-20T15:25:06.645Z,35.67
2017-12-20T15:27:34.166Z,35.90
2017-12-20T15:30:01.701Z,36.57
2017-12-20T15:32:29.221Z,43.60
2017-12-20T15:34:56.749Z,38.20
2017-12-20T15:37:24.270Z,37.77
2017-12-20T15:39:51.794Z,36.93
2017-12-20T15:42:19.334Z,43.40
2017-12-20T15:44:46.879Z,40.87
2017-12-20T15:47:14.406Z,40.97
2017-12-20T15:49:41.939Z,46.67
2017-12-20T15:52:09.459Z,43.33
2017-12-20T15:54:36.987Z,47.90
2017-12-20T15:57:04.511Z,47.57
2017-12-20T15:59:32.029Z,46.63
2017-12-20T16:01:59.636Z,48.77
2017-12-20T16:04:27.162Z,43.03
2017-12-20T16:06:54.682Z,49.13
2017-12-20T16:09:22.207Z,45.10
2017-12-20T16:11:49.734Z,47.27
2017-12-20T16:14:17.250Z,44.17
2017-12-20T16:16:44.769Z,41.87
2017-12-20T16:19:12.297Z,47.10
2017-12-20T16:21:39.832Z,47.30
2017-12-20T16:24:07.354Z,48.50
2017-12-20T16:26:34.883Z,46.67
2017-12-20T16:29:02.410Z,41.93
2017-12-20T16:31:29.930Z,43.40
2017-12-20T16:33:57.454Z,46.40
2017-12-20T16:36:24.985Z,47.83
2017-12-20T16:38:52.504Z,52.30
2017-12-20T16:41:20.038Z,50.87
2017-12-20T16:43:47.563Z,49.43
2017-12-20T16:46:15.110Z,54.77
2017-12-20T16:48:42.658Z,44.37
2017-12-20T16:51:10.196Z,50.33
2017-12-20T16:53:42.698Z,47.53
2017-12-20T16:56:10.219Z,48.97
2017-12-20T16:58:37.746Z,49.40
2017-12-20T17:01:05.270Z,53.43
2017-12-20T17:03:32.790Z,51.47
2017-12-20T17:06:00.310Z,52.03
2017-12-20T17:08:27.832Z,52.77
2017-12-20T17:10:55.366Z,51.80
2017-12-20T17:13:22.895Z,46.40
2017-12-20T17:15:50.425Z,44.63
2017-12-20T17:18:17.971Z,51.20
2017-12-20T17:20:45.547Z,52.30
2017-12-20T17:23:13.080Z,49.30
2017-12-20T17:25:40.620Z,48.30
2017-12-20T17:28:08.149Z,49.87
2017-12-20T17:30:35.670Z,46.53
2017-12-20T17:33:03.194Z,54.77
2017-12-20T17:35:30.712Z,47.47
2017-12-20T17:37:58.444Z,48.97
2017-12-20T17:40:25.971Z,48.70
2017-12-20T17:42:53.488Z,51.80
2017-12-20T17:45:21.018Z,47.23
2017-12-20T17:47:48.534Z,47.47
2017-12-20T17:50:16.064Z,49.73
2017-12-20T17:52:43.616Z,50.40
2017-12-20T17:55:11.165Z,49.60
2017-12-20T17:57:38.683Z,52.27
2017-12-20T18:00:06.200Z,52.07
2017-12-20T18:02:33.729Z,47.23
2017-12-20T18:05:01.253Z,46.90
2017-12-20T18:07:28.785Z,51.70
2017-12-20T18:09:56.350Z,48.53
2017-12-20T18:12:27.046Z,46.60
2017-12-20T18:14:54.577Z,48.23
2017-12-20T18:17:22.130Z,49.43
2017-12-20T18:19:49.651Z,52.27
2017-12-20T18:22:17.181Z,52.57
2017-12-20T18:24:44.707Z,50.40
2017-12-20T18:27:12.246Z,50.50
2017-12-20T18:29:39.767Z,54.60
2017-12-20T18:32:07.295Z,52.00
2017-12-20T18:34:34.846Z,53.57
2017-12-20T18:37:02.391Z,55.40
2017-12-20T18:39:29.934Z,48.50
2017-12-20T18:41:57.462Z,51.97
2017-12-20T18:44:24.984Z,50.47
2017-12-20T18:46:52.504Z,50.27
2017-12-20T18:49:20.038Z,49.47
2017-12-20T18:51:47.558Z,51.90
2017-12-20T18:54:15.092Z,49.03
2017-12-20T18:56:42.620Z,54.90
2017-12-20T18:59:10.138Z,52.97
2017-12-20T19:01:37.714Z,50.60
2017-12-20T19:04:05.326Z,51.23
2017-12-20T19:06:32.848Z,52.07
2017-12-20T19:09:00.376Z,46.13
2017-12-20T19:11:28.104Z,52.03
2017-12-20T19:13:55.630Z,49.20
2017-12-20T19:16:23.154Z,51.90
2017-12-20T19:18:50.665Z,52.40
2017-12-20T19:21:18.210Z,51.07
2017-12-20T19:23:45.735Z,48.63
2017-12-20T19:26:13.260Z,55.23
2017-12-20T19:28:40.781Z,53.63
2017-12-20T19:31:08.306Z,53.13
2017-12-20T19:33:35.836Z,57.60
2017-12-20T19:36:03.367Z,46.13
2017-12-20T19:48:15.906Z,53.67
2017-12-20T19:50:43.428Z,58.93
2017-12-20T19:53:10.951Z,55.37
2017-12-20T19:55:38.482Z,54.30
2017-12-20T19:58:06.001Z,56.50
2017-12-20T20:00:33.535Z,57.83
2017-12-20T20:03:01.052Z,56.50
2017-12-20T20:05:28.579Z,50.20
2017-12-20T20:07:56.112Z,56.30
2017-12-20T20:10:23.635Z,58.23
2017-12-20T20:12:51.161Z,57.83
2017-12-20T20:15:18.824Z,58.03
2017-12-20T20:17:46.354Z,55.10
2017-12-20T20:20:13.974Z,50.97
2017-12-20T20:22:41.673Z,53.57
2017-12-20T20:25:09.210Z,52.67
2017-12-20T20:27:36.813Z,53.53
2017-12-20T20:30:04.346Z,57.03
2017-12-20T20:32:31.878Z,58.57
2017-12-20T20:34:59.430Z,57.83
2017-12-20T20:37:26.990Z,54.17
2017-12-20T20:39:54.513Z,54.73
2017-12-20T20:42:22.042Z,54.00
2017-12-20T20:44:49.574Z,54.47
2017-12-20T20:47:17.107Z,55.57
2017-12-20T20:49:44.634Z,51.03
2017-12-20T20:52:12.180Z,53.77
2017-12-20T20:54:39.752Z,56.33
2017-12-20T20:57:07.290Z,53.50
2017-12-20T20:59:34.858Z,52.83
2017-12-20T21:02:02.390Z,55.87
2017-12-20T21:04:29.914Z,53.00
2017-12-20T21:06:57.437Z,54.03
2017-12-20T21:09:25.122Z,50.93
2017-12-20T21:11:58.465Z,51.97
2017-12-20T21:14:25.995Z,50.10
2017-12-20T21:16:53.542Z,57.63
2017-12-20T21:19:21.102Z,55.03
2017-12-20T21:21:49.433Z,51.57
2017-12-20T21:24:16.944Z,52.03
2017-12-20T21:26:44.471Z,52.80
2017-12-20T21:29:12.057Z,48.93
2017-12-20T21:31:39.618Z,47.27
2017-12-20T21:34:07.198Z,52.77
2017-12-20T21:36:34.729Z,46.43
2017-12-20T21:39:02.248Z,47.20
2017-12-20T21:41:29.770Z,49.90
2017-12-20T21:43:57.290Z,53.03
2017-12-20T21:46:24.820Z,49.03
2017-12-20T21:48:52.363Z,49.40
2017-12-20T21:51:19.922Z,47.13
2017-12-20T21:53:47.503Z,49.47
2017-12-20T21:56:15.030Z,55.47
2017-12-20T21:58:42.548Z,43.40
2017-12-20T22:01:10.078Z,50.00
2017-12-20T22:03:37.607Z,52.67
2017-12-20T22:06:05.132Z,51.37
2017-12-20T22:08:32.682Z,52.67
2017-12-20T22:11:00.209Z,43.83
2017-12-20T22:13:28.014Z,50.00
2017-12-20T22:15:55.539Z,55.40
2017-12-20T22:18:23.105Z,47.67
2017-12-20T22:20:50.663Z,45.73
2017-12-20T22:23:18.191Z,48.77
2017-12-20T22:25:45.731Z,46.63
2017-12-20T22:28:13.258Z,45.37
2017-12-20T22:30:40.777Z,47.23
2017-12-20T22:33:08.300Z,51.33
2017-12-20T22:35:35.832Z,44.87
2017-12-20T22:38:03.365Z,49.10
2017-12-20T22:40:30.890Z,49.53
2017-12-20T22:42:58.422Z,45.77
2017-12-20T22:45:25.948Z,49.80
2017-12-20T22:47:53.478Z,45.77
2017-12-20T22:50:21.005Z,54.45
2017-12-20T22:52:48.526Z,44.17
2017-12-20T22:55:16.048Z,44.90
2017-12-20T22:57:43.564Z,43.30
2017-12-20T23:00:11.106Z,40.17
2017-12-20T23:02:38.633Z,40.37
2017-12-20T23:05:06.172Z,40.90
2017-12-20T23:07:33.691Z,41.07
2017-12-20T23:10:01.215Z,42.33
2017-12-20T23:12:28.736Z,40.97
2017-12-20T23:14:56.255Z,41.30
2017-12-20T23:17:24.503Z,41.30
2017-12-20T23:19:52.029Z,37.33
2017-12-20T23:22:19.548Z,40.50
2017-12-20T23:24:47.066Z,36.23
2017-12-20T23:27:14.589Z,40.27
2017-12-20T23:29:42.120Z,37.23
2017-12-20T23:32:09.657Z,37.07
2017-12-20T23:34:37.197Z,34.43
2017-12-20T23:37:04.724Z,36.37
2017-12-20T23:39:32.264Z,37.40
2017-12-20T23:41:59.852Z,30.80
2017-12-20T23:44:27.378Z,32.17
2017-12-20T23:46:54.935Z,31.13
2017-12-20T23:49:22.464Z,29.43
2017-12-20T23:51:50.004Z,27.33
2017-12-20T23:54:17.526Z,28.90
2017-12-20T23:56:45.057Z,28.77
2017-12-20T23:59:12.598Z,25.50
